Time;durP1;ratioP1;P1;durP2;ratioP2;P2;SDS_P1;SDS_P2;PMS_P1;PMS_P2;Temp;Humidity;BMP_temperature;BMP_pressure;BME280_temperature;BME280_humidity;BME280_pressure;Samples;Min_cycle;Max_cycle;Signal;HPM_P1;HPM_P2
2021/05/07 00:00:04;;;;;;;11.43;6.70;;;;;;;7.54;62.51;100947.25;5045730;28;20104;-91
2021/05/07 00:02:31;;;;;;;10.70;6.90;;;;;;;7.48;62.80;100940.25;5042283;28;20028;-93
2021/05/07 00:04:57;;;;;;;8.05;6.40;;;;;;;7.49;62.63;100941.13;5040100;28;20034;-88
2021/05/07 00:07:23;;;;;;;9.52;6.80;;;;;;;7.47;62.50;100940.28;5041916;28;20505;-95
2021/05/07 00:09:50;;;;;;;10.60;6.10;;;;;;;7.42;62.56;100933.25;5045853;28;20041;-93
2021/05/07 00:12:16;;;;;;;11.57;6.60;;;;;;;7.42;62.49;100937.66;5040453;28;20106;-92
2021/05/07 00:14:43;;;;;;;10.32;6.50;;;;;;;7.41;62.89;100949.06;5039011;28;20018;-93
2021/05/07 00:17:09;;;;;;;12.48;7.75;;;;;;;7.39;62.71;100943.81;5040456;28;20480;-92
2021/05/07 00:19:36;;;;;;;11.82;7.07;;;;;;;7.38;62.66;100947.34;5039912;28;20079;-93
2021/05/07 00:22:02;;;;;;;14.13;7.90;;;;;;;7.36;63.16;100945.59;5063645;22;20049;-91
2021/05/07 00:24:29;;;;;;;12.43;7.20;;;;;;;7.38;63.35;100949.97;5053706;28;20063;-91
2021/05/07 00:26:56;;;;;;;10.07;7.13;;;;;;;7.40;63.04;100949.94;5053982;28;20071;-91
2021/05/07 00:29:22;;;;;;;10.50;6.68;;;;;;;7.39;63.08;100954.38;5054300;28;20040;-90
2021/05/07 00:31:49;;;;;;;12.45;7.45;;;;;;;7.39;63.10;100954.38;5052935;28;20048;-91
2021/05/07 00:34:15;;;;;;;13.32;7.25;;;;;;;7.37;63.17;100971.94;5053488;28;20057;-91
2021/05/07 00:36:43;;;;;;;9.90;5.80;;;;;;;7.37;63.22;100968.44;5053401;28;20025;-91
2021/05/07 00:39:09;;;;;;;11.00;7.10;;;;;;;7.37;63.32;100958.75;5053614;28;20029;-91
2021/05/07 00:41:36;;;;;;;12.05;7.88;;;;;;;7.37;63.32;100966.66;5052169;28;20064;-91
2021/05/07 00:44:03;;;;;;;9.57;7.28;;;;;;;7.38;63.56;100957.03;5053530;28;20029;-91
2021/05/07 00:46:29;;;;;;;10.85;6.85;;;;;;;7.37;63.08;100957.91;5053298;28;20083;-90
2021/05/07 00:48:56;;;;;;;12.60;7.50;;;;;;;7.35;63.06;100962.28;5053444;28;20036;-91
2021/05/07 00:51:24;;;;;;;10.50;7.05;;;;;;;7.36;63.00;100964.03;5051856;28;20029;-92
2021/05/07 00:53:51;;;;;;;11.27;6.88;;;;;;;7.36;63.21;100964.91;5053802;28;20064;-91
2021/05/07 00:56:18;;;;;;;10.00;6.85;;;;;;;7.36;63.11;100964.91;5053304;28;20491;-90
2021/05/07 00:58:45;;;;;;;9.88;7.70;;;;;;;7.40;63.46;100971.03;5054010;28;20039;-92
2021/05/07 01:01:12;;;;;;;11.75;7.32;;;;;;;7.40;63.59;100953.50;5057045;28;20027;-91
2021/05/07 01:03:39;;;;;;;11.10;8.30;;;;;;;7.43;64.13;100952.59;5061103;28;20139;-83
2021/05/07 01:06:06;;;;;;;12.43;8.65;;;;;;;7.47;64.03;100962.22;5058479;28;20029;-90
2021/05/07 01:08:34;;;;;;;15.93;9.98;;;;;;;7.47;64.04;100972.78;5054070;28;20415;-91
2021/05/07 01:11:00;;;;;;;12.68;9.55;;;;;;;7.53;64.00;100971.88;5057203;28;20087;-91
2021/05/07 01:13:27;;;;;;;12.95;8.45;;;;;;;7.54;64.36;100963.94;5057113;28;20112;-92
2021/05/07 01:15:53;;;;;;;11.73;8.93;;;;;;;7.59;64.50;100961.31;5056829;28;20040;-90
2021/05/07 01:18:20;;;;;;;12.65;9.27;;;;;;;7.64;64.44;100971.78;5057205;28;20029;-91
2021/05/07 01:20:46;;;;;;;15.55;10.65;;;;;;;7.67;64.34;100975.28;5057202;28;20107;-90
2021/05/07 01:23:13;;;;;;;15.20;10.27;;;;;;;7.70;64.69;100974.41;5056226;28;20048;-91
2021/05/07 01:25:42;;;;;;;15.57;11.10;;;;;;;7.75;64.32;100970.88;5056611;28;20025;-90
2021/05/07 01:28:11;;;;;;;17.63;11.15;;;;;;;7.83;64.73;100967.31;5056712;28;20060;-90
2021/05/07 01:30:40;;;;;;;21.42;11.15;;;;;;;7.87;64.56;100976.94;5055572;28;20052;-91
2021/05/07 01:33:14;;;;;;;15.52;11.20;;;;;;;7.91;64.38;100973.38;5056302;28;20056;-89
2021/05/07 01:35:41;;;;;;;14.85;10.93;;;;;;;7.92;64.76;100970.75;5057224;28;20033;-89
2021/05/07 01:38:11;;;;;;;15.52;11.55;;;;;;;8.00;64.69;100972.44;5056435;28;20025;-91
2021/05/07 01:40:40;;;;;;;22.25;12.38;;;;;;;8.02;64.57;100968.91;5056518;28;20423;-90
2021/05/07 01:43:07;;;;;;;16.55;11.07;;;;;;;8.05;64.41;100971.53;5056163;28;20391;-91
2021/05/07 01:45:36;;;;;;;19.33;13.25;;;;;;;8.08;64.31;100971.50;5056523;28;20075;-91
2021/05/07 01:48:04;;;;;;;14.50;11.35;;;;;;;8.15;64.69;100968.81;5055994;28;20466;-89
2021/05/07 01:50:32;;;;;;;15.93;12.05;;;;;;;8.17;64.34;100964.41;5055881;28;20029;-91
2021/05/07 01:52:59;;;;;;;15.32;10.93;;;;;;;8.20;64.14;100959.09;5055890;28;20439;-92
2021/05/07 01:55:30;;;;;;;17.30;12.20;;;;;;;8.26;64.05;100964.31;5055544;28;20476;-89
2021/05/07 01:57:58;;;;;;;15.07;10.20;;;;;;;8.27;64.22;100950.22;5055828;28;20026;-90
2021/05/07 02:00:27;;;;;;;13.98;10.32;;;;;;;8.29;64.57;100948.47;5055893;28;20407;-90
2021/05/07 02:02:56;;;;;;;15.93;10.27;;;;;;;8.28;64.25;100952.00;5055484;28;20425;-90
2021/05/07 02:05:26;;;;;;;18.67;12.52;;;;;;;8.26;64.73;100943.19;5055780;28;20036;-90
2021/05/07 02:07:52;;;;;;;13.63;10.77;;;;;;;8.28;64.20;100952.00;5057287;28;20025;-90
2021/05/07 02:10:22;;;;;;;15.48;9.93;;;;;;;8.30;64.13;100954.59;5055950;28;20029;-89
2021/05/07 02:12:51;;;;;;;14.27;11.05;;;;;;;8.32;63.87;100956.34;5055923;28;20356;-89
2021/05/07 02:15:19;;;;;;;16.08;10.38;;;;;;;8.34;64.11;100965.13;5056116;28;20104;-90
2021/05/07 02:17:46;;;;;;;11.75;10.00;;;;;;;8.37;63.89;100964.22;5055848;28;20047;-90
2021/05/07 02:20:14;;;;;;;14.60;10.40;;;;;;;8.44;63.98;100976.50;5055445;28;20444;-88
2021/05/07 02:22:46;;;;;;;13.30;8.80;;;;;;;8.12;63.74;100987.31;5055159;28;20033;-89
2021/05/07 02:25:14;;;;;;;10.52;6.82;;;;;;;8.09;63.70;100990.88;5055220;28;20029;-86
2021/05/07 02:27:42;;;;;;;11.52;5.85;;;;;;;8.13;63.77;100994.38;5055456;28;20025;-88
2021/05/07 02:30:10;;;;;;;5.38;3.40;;;;;;;7.88;63.23;100999.81;5055569;28;20083;-87
2021/05/07 02:32:37;;;;;;;4.88;3.10;;;;;;;7.87;63.31;101008.59;5055293;28;20033;-88
2021/05/07 02:35:05;;;;;;;3.72;2.42;;;;;;;7.66;62.90;101012.22;5055383;28;20033;-89
2021/05/07 02:37:32;;;;;;;2.83;2.28;;;;;;;7.61;63.27;101014.88;5055096;28;20037;-83
2021/05/07 02:39:59;;;;;;;5.95;2.28;;;;;;;7.29;63.66;101015.91;5055424;28;20060;-83
2021/05/07 02:42:26;;;;;;;6.28;2.92;;;;;;;7.29;63.44;101005.38;5053504;28;20033;-85
2021/05/07 02:44:53;;;;;;;2.28;2.00;;;;;;;7.19;64.11;101019.44;5055485;28;20075;-84
2021/05/07 02:47:19;;;;;;;5.28;2.05;;;;;;;7.04;64.41;101042.34;5055339;28;20029;-87
2021/05/07 02:49:47;;;;;;;3.75;2.17;;;;;;;6.94;64.93;101061.66;5037612;28;20029;-86
2021/05/07 02:52:14;;;;;;;4.80;2.30;;;;;;;6.82;65.23;101052.03;5055464;28;20036;-84
2021/05/07 02:54:40;;;;;;;6.97;2.22;;;;;;;6.89;65.39;101056.41;5055766;28;20405;-85
2021/05/07 02:57:07;;;;;;;5.25;2.90;;;;;;;6.77;65.72;101054.66;5055101;28;20021;-85
2021/05/07 02:59:34;;;;;;;4.13;2.22;;;;;;;6.66;66.28;101066.97;5055444;28;20017;-85
2021/05/07 03:02:00;;;;;;;4.90;2.60;;;;;;;6.69;65.95;101060.81;5054331;28;20021;-85
2021/05/07 03:04:26;;;;;;;4.25;2.60;;;;;;;6.45;67.17;101073.09;5054508;28;20040;-85
2021/05/07 03:06:53;;;;;;;5.35;2.17;;;;;;;6.43;66.88;101067.84;5054401;28;20025;-84
2021/05/07 03:09:19;;;;;;;3.45;1.98;;;;;;;6.31;67.09;101080.97;5054603;28;20036;-84
2021/05/07 03:11:45;;;;;;;5.07;2.15;;;;;;;6.20;67.18;101072.19;5054759;28;20029;-83
2021/05/07 03:14:12;;;;;;;4.40;2.42;;;;;;;6.13;67.31;101076.53;5054802;28;20039;-84
2021/05/07 03:16:38;;;;;;;4.30;2.15;;;;;;;6.20;66.99;101074.81;5054582;28;20029;-84
2021/05/07 03:19:05;;;;;;;6.20;2.47;;;;;;;5.89;67.51;101083.47;5054686;28;20032;-83
2021/05/07 03:21:32;;;;;;;6.65;2.67;;;;;;;6.07;66.70;101090.59;5054820;28;20033;-84
2021/05/07 03:23:59;;;;;;;4.07;2.95;;;;;;;5.94;67.14;101092.28;5054182;28;20029;-84
2021/05/07 03:26:25;;;;;;;4.25;2.40;;;;;;;5.94;65.95;101099.28;5054629;28;20465;-84
2021/05/07 03:28:52;;;;;;;6.30;2.95;;;;;;;5.85;65.87;101102.75;5054188;28;20033;-84
2021/05/07 03:31:19;;;;;;;5.20;2.35;;;;;;;5.66;66.57;101107.06;5053826;28;20029;-84
2021/05/07 03:33:45;;;;;;;6.78;2.63;;;;;;;5.65;66.17;101107.94;5054302;28;20100;-84
2021/05/07 03:36:12;;;;;;;5.28;2.85;;;;;;;5.61;65.09;101119.31;5054206;28;20033;-84
2021/05/07 03:38:38;;;;;;;3.28;2.85;;;;;;;5.51;64.44;101118.38;5053980;28;20056;-84
2021/05/07 03:41:05;;;;;;;5.70;3.30;;;;;;;5.51;63.91;101116.63;5054050;28;20529;-84
2021/05/07 03:43:32;;;;;;;9.60;3.28;;;;;;;5.49;64.27;101109.59;5054329;28;20064;-84
2021/05/07 03:45:58;;;;;;;5.47;2.58;;;;;;;5.55;65.05;101093.00;5053135;28;20033;-83
2021/05/07 03:48:25;;;;;;;3.60;2.55;;;;;;;5.60;66.01;101086.88;5054294;28;20063;-83
2021/05/07 03:50:54;;;;;;;4.70;3.17;;;;;;;5.67;66.88;101087.81;5053410;28;20033;-84
2021/05/07 03:53:22;;;;;;;3.90;3.05;;;;;;;5.73;67.41;101082.56;5054201;28;20017;-84
2021/05/07 03:55:48;;;;;;;3.72;2.63;;;;;;;5.80;67.38;101089.56;5054236;28;20029;-84
2021/05/07 03:58:15;;;;;;;5.90;2.92;;;;;;;5.81;67.29;101088.72;5054051;28;20074;-84
2021/05/07 04:00:42;;;;;;;7.75;3.67;;;;;;;5.85;67.45;101094.00;5054014;28;20029;-84
2021/05/07 04:03:09;;;;;;;4.57;3.38;;;;;;;5.86;67.47;101098.34;5053720;28;20061;-84
2021/05/07 04:05:37;;;;;;;4.55;3.30;;;;;;;5.89;67.78;101099.25;5053748;28;20033;-84
2021/05/07 04:08:14;;;;;;;4.85;3.13;;;;;;;5.93;67.86;101108.03;5054055;28;20488;-85
2021/05/07 04:10:43;;;;;;;5.90;3.25;;;;;;;5.98;67.67;101111.56;5053818;28;20368;-84
2021/05/07 04:13:42;;;;;;;5.38;3.17;;;;;;;5.94;67.84;101123.84;5053473;28;20048;-84
2021/05/07 04:15:56;;;;;;;3.72;3.08;;;;;;;5.97;67.60;101117.72;5053421;28;20411;-84
2021/05/07 04:18:23;;;;;;;7.60;3.53;;;;;;;5.97;67.72;101130.84;5053498;28;20056;-85
2021/05/07 04:20:49;;;;;;;7.00;3.20;;;;;;;5.97;67.57;101134.34;5053732;28;20032;-85
2021/05/07 04:23:16;;;;;;;11.70;3.47;;;;;;;6.00;67.62;101138.78;5053544;28;20033;-84
2021/05/07 04:25:42;;;;;;;5.38;3.63;;;;;;;6.02;67.83;101146.66;5054061;28;20364;-84
2021/05/07 04:28:08;;;;;;;5.82;2.90;;;;;;;6.02;67.91;101152.81;5053354;28;20091;-84
2021/05/07 04:30:35;;;;;;;7.70;4.07;;;;;;;6.12;67.54;101170.41;5053432;28;20029;-84
2021/05/07 04:33:01;;;;;;;6.32;3.78;;;;;;;6.18;67.60;101180.06;5053206;28;20040;-84
2021/05/07 04:35:27;;;;;;;4.68;3.20;;;;;;;6.24;67.43;101187.09;5053281;28;20088;-84
2021/05/07 04:37:53;;;;;;;5.57;3.38;;;;;;;6.25;67.44;101189.72;5053376;28;20464;-84
2021/05/07 04:40:19;;;;;;;6.70;3.72;;;;;;;6.22;67.30;101191.47;5053459;28;20097;-85
2021/05/07 04:42:46;;;;;;;5.60;3.17;;;;;;;6.08;67.03;101205.47;5053380;28;20044;-83
2021/05/07 04:45:13;;;;;;;4.32;3.47;;;;;;;6.02;66.87;101209.78;5056309;28;20036;-83
2021/05/07 04:47:39;;;;;;;5.03;3.65;;;;;;;5.97;66.76;101218.53;5057227;28;20029;-82
2021/05/07 04:50:06;;;;;;;6.30;3.75;;;;;;;5.96;66.67;101226.41;5057360;28;20029;-84
2021/05/07 04:52:33;;;;;;;6.10;3.72;;;;;;;5.93;66.69;101229.91;5057522;28;20033;-84
2021/05/07 04:54:59;;;;;;;4.95;3.33;;;;;;;5.89;66.70;101227.25;5057406;28;20090;-85
2021/05/07 04:57:29;;;;;;;6.10;3.92;;;;;;;5.81;66.72;101229.84;5057863;28;20029;-84
2021/05/07 04:59:56;;;;;;;4.65;3.45;;;;;;;5.82;66.66;101235.09;5056749;28;20186;-84
2021/05/07 05:02:23;;;;;;;11.05;5.70;;;;;;;5.71;67.44;101246.41;5056912;28;20115;-84
2021/05/07 05:04:49;;;;;;;8.55;5.65;;;;;;;5.74;67.54;101247.31;5055374;28;20029;-84
2021/05/07 05:07:27;;;;;;;10.30;6.47;;;;;;;5.83;67.56;101251.75;5057078;28;20036;-85
2021/05/07 05:09:53;;;;;;;10.35;6.97;;;;;;;5.86;67.51;101253.50;5057037;28;20029;-84
2021/05/07 05:12:23;;;;;;;12.80;8.48;;;;;;;5.99;67.67;101256.28;5057542;28;20060;-85
2021/05/07 05:14:50;;;;;;;11.13;7.85;;;;;;;6.07;67.54;101253.69;5057367;28;20091;-85
2021/05/07 05:17:16;;;;;;;11.38;7.57;;;;;;;6.17;67.76;101261.59;5057345;28;20036;-85
2021/05/07 05:19:43;;;;;;;12.40;7.90;;;;;;;6.21;67.71;101261.63;5057231;28;20082;-84
2021/05/07 05:22:09;;;;;;;10.02;6.80;;;;;;;6.24;67.46;101263.41;5056625;28;20063;-84
2021/05/07 05:24:35;;;;;;;11.93;8.38;;;;;;;6.21;67.54;101268.66;5056677;28;20028;-86
2021/05/07 05:27:02;;;;;;;10.65;7.50;;;;;;;6.22;67.65;101273.94;5056749;28;20104;-84
2021/05/07 05:29:28;;;;;;;8.25;6.28;;;;;;;6.22;67.29;101279.19;5056815;28;20028;-84
2021/05/07 05:31:54;;;;;;;10.63;7.40;;;;;;;6.22;67.36;101279.19;5056876;28;20129;-85
2021/05/07 05:34:21;;;;;;;9.88;6.78;;;;;;;6.23;67.29;101282.69;5056783;28;20029;-85
2021/05/07 05:36:52;;;;;;;10.70;7.28;;;;;;;6.25;67.58;101280.97;5057145;28;20075;-85
2021/05/07 05:39:26;;;;;;;9.65;6.43;;;;;;;6.31;67.44;101286.25;5056098;28;20063;-84
2021/05/07 05:41:52;;;;;;;14.00;8.07;;;;;;;6.32;67.43;101293.28;5056291;28;20021;-84
2021/05/07 05:44:18;;;;;;;9.05;6.22;;;;;;;6.31;67.59;101297.66;5055425;28;20040;-83
2021/05/07 05:46:45;;;;;;;9.27;6.28;;;;;;;6.40;67.67;101303.84;5055042;28;20037;-82
2021/05/07 05:49:11;;;;;;;10.18;5.50;;;;;;;6.41;67.80;101303.84;5055801;28;20472;-82
2021/05/07 05:51:37;;;;;;;9.45;6.35;;;;;;;6.63;67.67;101310.06;5056272;28;20486;-83
2021/05/07 05:54:04;;;;;;;8.05;6.20;;;;;;;6.67;67.91;101305.69;5055728;28;20360;-82
2021/05/07 05:56:30;;;;;;;11.18;8.00;;;;;;;6.67;68.36;101310.97;5055714;28;20036;-83
2021/05/07 05:58:57;;;;;;;14.68;9.27;;;;;;;6.86;68.09;101311.03;5056033;28;20028;-81
2021/05/07 06:01:23;;;;;;;15.20;7.80;;;;;;;7.00;68.05;101309.28;5054512;28;20115;-83
2021/05/07 06:03:50;;;;;;;14.23;7.60;;;;;;;7.05;68.12;101312.84;5055794;28;20480;-83
2021/05/07 06:06:16;;;;;;;13.85;6.78;;;;;;;7.11;68.44;101318.09;5055523;28;20032;-83
2021/05/07 06:08:42;;;;;;;8.60;6.40;;;;;;;7.30;68.13;101323.41;5055878;28;20025;-82
2021/05/07 06:11:09;;;;;;;11.23;7.60;;;;;;;7.37;68.18;101325.19;5056008;28;20113;-82
2021/05/07 06:13:35;;;;;;;11.25;7.45;;;;;;;7.52;67.67;101324.31;5055910;28;20033;-81
2021/05/07 06:16:01;;;;;;;9.23;7.65;;;;;;;7.66;67.70;101329.56;5055687;28;20029;-83
2021/05/07 06:18:27;;;;;;;9.98;6.60;;;;;;;7.80;67.97;101326.97;5056450;28;20025;-82
2021/05/07 06:20:53;;;;;;;10.38;6.80;;;;;;;7.90;67.46;101331.34;5058848;28;20072;-82
2021/05/07 06:23:20;;;;;;;12.15;7.70;;;;;;;7.85;68.46;101348.94;5058783;28;20043;-83
2021/05/07 06:25:46;;;;;;;8.30;6.43;;;;;;;7.96;67.15;101354.19;5061134;28;20021;-82
2021/05/07 06:28:12;;;;;;;9.98;7.28;;;;;;;8.12;67.50;101356.81;5058513;28;20025;-82
2021/05/07 06:30:38;;;;;;;13.80;7.45;;;;;;;8.20;66.75;101360.31;5057955;28;20491;-83
2021/05/07 06:33:05;;;;;;;12.25;8.07;;;;;;;8.18;66.70;101359.44;5056885;28;20029;-83
2021/05/07 06:35:31;;;;;;;12.10;7.28;;;;;;;8.22;66.95;101361.19;5055677;28;20039;-83
2021/05/07 06:38:01;;;;;;;11.27;8.13;;;;;;;8.31;66.70;101358.56;5055850;28;20104;-83
2021/05/07 06:40:27;;;;;;;11.10;7.60;;;;;;;8.37;66.53;101365.56;5055777;28;20079;-83
2021/05/07 06:42:53;;;;;;;12.30;7.78;;;;;;;8.48;66.30;101370.84;5055568;28;20032;-85
2021/05/07 06:45:19;;;;;;;11.98;8.15;;;;;;;8.51;66.41;101377.00;5055138;28;20112;-82
2021/05/07 06:47:46;;;;;;;10.68;7.15;;;;;;;8.45;66.52;101379.63;5054846;28;20021;-82
2021/05/07 06:50:13;;;;;;;12.15;8.13;;;;;;;8.53;66.04;101382.28;5054690;28;20447;-82
2021/05/07 06:52:40;;;;;;;10.10;7.13;;;;;;;8.51;66.57;101386.69;5054701;28;20108;-82
2021/05/07 06:55:07;;;;;;;10.05;7.80;;;;;;;8.60;66.27;101380.50;5055088;28;20071;-82
2021/05/07 06:57:35;;;;;;;12.38;8.07;;;;;;;8.64;66.08;101383.13;5054503;28;20068;-83
2021/05/07 07:00:02;;;;;;;12.23;7.95;;;;;;;8.77;65.88;101389.22;5055216;28;20072;-84
2021/05/07 07:02:28;;;;;;;13.98;7.90;;;;;;;8.81;66.01;101390.09;5054239;28;20025;-83
2021/05/07 07:04:55;;;;;;;13.05;8.57;;;;;;;8.75;66.05;101385.75;5053896;28;20091;-83
2021/05/07 07:07:23;;;;;;;10.15;7.72;;;;;;;8.72;65.88;101391.00;5052450;28;20025;-84
2021/05/07 07:09:50;;;;;;;16.98;7.43;;;;;;;8.64;66.03;101401.63;5046876;28;20116;-84
2021/05/07 07:12:16;;;;;;;16.02;7.38;;;;;;;8.69;66.28;101405.13;5049360;28;20420;-83
2021/05/07 07:14:42;;;;;;;12.18;8.38;;;;;;;8.75;65.70;101412.16;5051436;28;20530;-84
2021/05/07 07:17:08;;;;;;;11.95;7.80;;;;;;;8.78;66.21;101414.78;5051905;28;20020;-84
2021/05/07 07:19:35;;;;;;;12.60;8.23;;;;;;;8.84;65.74;101422.69;5051405;28;20075;-88
2021/05/07 07:22:03;;;;;;;11.88;7.75;;;;;;;8.87;66.02;101416.50;5048896;28;20036;-84
2021/05/07 07:24:30;;;;;;;12.40;8.40;;;;;;;9.01;65.74;101425.28;5051999;28;20036;-84
2021/05/07 07:26:56;;;;;;;13.45;8.73;;;;;;;9.15;65.82;101438.41;5053092;28;20032;-84
2021/05/07 07:29:23;;;;;;;15.80;10.60;;;;;;;9.27;66.22;101436.59;5052445;28;20032;-84
2021/05/07 07:31:51;;;;;;;10.70;8.65;;;;;;;9.29;66.39;101442.78;5042326;28;20036;-83
2021/05/07 07:34:18;;;;;;;12.27;9.30;;;;;;;9.33;65.82;101437.47;5039579;28;20033;-84
2021/05/07 07:36:45;;;;;;;10.73;8.80;;;;;;;9.33;66.04;101444.50;5037310;28;20489;-83
2021/05/07 07:39:13;;;;;;;13.60;8.65;;;;;;;9.37;65.64;101441.84;5040162;28;20048;-83
2021/05/07 07:41:39;;;;;;;13.02;8.05;;;;;;;9.43;66.16;101447.97;5033539;28;20068;-84
2021/05/07 07:44:07;;;;;;;11.85;9.07;;;;;;;9.50;66.25;101442.63;5034276;28;20025;-83
2021/05/07 07:46:33;;;;;;;14.27;9.50;;;;;;;9.63;66.00;101446.13;5037569;28;20108;-83
2021/05/07 07:48:59;;;;;;;12.20;9.27;;;;;;;9.76;65.45;101449.53;5036347;28;20033;-82
2021/05/07 07:51:29;;;;;;;13.82;10.13;;;;;;;9.92;65.62;101452.06;5038195;28;20102;-83
2021/05/07 07:53:57;;;;;;;13.45;10.05;;;;;;;10.03;65.74;101456.41;5047365;28;20043;-82
2021/05/07 07:56:23;;;;;;;12.80;9.40;;;;;;;10.16;65.78;101440.41;5051118;28;20054;-83
2021/05/07 07:58:49;;;;;;;13.68;9.85;;;;;;;10.37;65.91;101457.91;5052290;28;20025;-83
2021/05/07 08:01:16;;;;;;;14.65;10.00;;;;;;;10.59;66.06;101455.03;5052472;28;20054;-84
2021/05/07 08:03:42;;;;;;;11.18;8.35;;;;;;;10.80;65.31;101459.25;5050173;28;20044;-83
2021/05/07 08:06:08;;;;;;;14.77;7.10;;;;;;;10.90;64.61;101460.03;5048060;28;20036;-83
2021/05/07 08:08:35;;;;;;;9.80;6.18;;;;;;;10.73;63.06;101468.16;5049802;28;20047;-83
2021/05/07 08:11:01;;;;;;;8.57;5.10;;;;;;;10.54;59.62;101470.13;5051486;28;20032;-83
2021/05/07 08:13:27;;;;;;;8.10;4.80;;;;;;;10.36;59.25;101470.25;5051361;28;20170;-84
2021/05/07 08:15:53;;;;;;;6.60;4.22;;;;;;;10.22;58.80;101482.72;5050180;28;20391;-81
2021/05/07 08:18:19;;;;;;;5.93;4.30;;;;;;;10.25;58.58;101481.81;5039576;28;20025;-84
2021/05/07 08:20:45;;;;;;;9.88;6.10;;;;;;;10.42;58.17;101485.25;5037838;28;20021;-84
2021/05/07 08:23:12;;;;;;;7.15;4.28;;;;;;;10.56;57.80;101484.25;5046179;28;20095;-84
2021/05/07 08:25:38;;;;;;;10.32;4.50;;;;;;;10.70;57.56;101500.88;5046979;28;20049;-84
2021/05/07 08:28:04;;;;;;;7.03;4.22;;;;;;;10.70;54.34;101500.00;5041641;28;20028;-85
2021/05/07 08:30:30;;;;;;;5.45;4.10;;;;;;;10.84;55.10;101503.38;5041075;28;20032;-84
2021/05/07 08:32:56;;;;;;;6.72;3.72;;;;;;;10.64;54.10;101504.47;5047390;28;20421;-85
2021/05/07 08:35:24;;;;;;;7.82;4.18;;;;;;;10.61;54.24;101509.78;5051646;28;20807;-86
2021/05/07 08:37:51;;;;;;;6.13;3.90;;;;;;;10.62;55.17;101503.59;5051452;28;20497;-86
2021/05/07 08:40:18;;;;;;;6.93;4.25;;;;;;;10.86;55.57;101506.03;5051795;28;20109;-85
2021/05/07 08:42:44;;;;;;;8.00;4.03;;;;;;;10.94;54.94;101512.09;5048594;28;20037;-84
2021/05/07 08:45:12;;;;;;;7.85;4.30;;;;;;;11.15;54.77;101514.53;5047942;28;20017;-85
2021/05/07 08:47:39;;;;;;;5.75;3.78;;;;;;;11.18;54.00;101524.22;5044760;28;20072;-85
2021/05/07 08:50:08;;;;;;;7.10;3.70;;;;;;;11.22;52.98;101519.78;5047337;28;20033;-85
2021/05/07 08:52:35;;;;;;;6.70;3.72;;;;;;;11.11;51.94;101536.66;5042612;28;20041;-85
2021/05/07 08:55:04;;;;;;;7.45;3.63;;;;;;;11.31;51.81;101536.47;5048700;28;20044;-87
2021/05/07 08:57:32;;;;;;;5.15;3.35;;;;;;;11.28;51.45;101544.44;5050144;28;20029;-86
2021/05/07 08:59:58;;;;;;;8.45;4.22;;;;;;;11.38;51.05;101557.63;5049309;28;20033;-86
2021/05/07 09:02:32;;;;;;;8.50;4.68;;;;;;;11.54;51.60;101551.22;5043439;28;20060;-86
2021/05/07 09:04:59;;;;;;;11.70;4.90;;;;;;;11.72;52.59;101551.88;5039088;28;20598;-86
2021/05/07 09:07:30;;;;;;;9.10;4.63;;;;;;;11.93;52.02;101546.25;5043415;28;20087;-86
2021/05/07 09:10:01;;;;;;;6.95;4.30;;;;;;;12.21;51.30;101540.56;5047876;28;20102;-87
2021/05/07 09:15:09;;;;;;;7.63;3.80;;;;;;;12.04;49.83;101564.72;5085122;27;21410;-87
2021/05/07 09:17:37;;;;;;;7.65;4.03;;;;;;;11.87;48.57;101567.56;5068862;28;20458;-84
2021/05/07 09:22:49;;;;;;;5.55;3.80;;;;;;;11.95;48.47;101578.97;5063902;28;20425;-87
2021/05/07 09:25:17;;;;;;;11.77;4.93;;;;;;;12.01;48.73;101579.81;5037341;28;20409;-86
2021/05/07 09:27:45;;;;;;;6.95;3.63;;;;;;;12.16;49.79;101581.38;5032487;28;20029;-88
2021/05/07 09:30:30;;;;;;;5.93;4.03;;;;;;;12.53;48.58;101576.38;5031939;28;20034;-87
2021/05/07 09:32:57;;;;;;;5.10;3.30;;;;;;;12.25;47.21;101594.50;5038676;28;20380;-86
2021/05/07 09:35:31;;;;;;;9.25;3.65;;;;;;;12.16;46.60;101594.66;5045903;28;20726;-89
2021/05/07 09:38:06;;;;;;;4.88;3.53;;;;;;;11.89;46.62;101596.78;5044852;28;20104;-92
2021/05/07 09:40:35;;;;;;;5.07;3.78;;;;;;;12.12;47.79;101591.16;5044728;28;20064;-88
2021/05/07 09:43:20;;;;;;;6.57;3.85;;;;;;;12.17;46.87;101607.06;5039163;28;20033;-91
2021/05/07 09:45:49;;;;;;;7.32;3.78;;;;;;;12.49;46.79;101600.38;5038149;28;20036;-94
2021/05/07 09:48:20;;;;;;;5.75;3.22;;;;;;;12.66;46.83;101595.66;5038726;28;20033;-93
2021/05/07 09:50:48;;;;;;;6.73;3.40;;;;;;;12.60;46.82;101617.91;5040451;28;20067;-93
2021/05/07 09:53:19;;;;;;;4.97;3.78;;;;;;;12.32;44.96;101624.56;5037301;28;20264;-93
2021/05/07 09:55:47;;;;;;;5.05;3.65;;;;;;;12.34;44.89;101626.28;5038140;28;20038;-89
2021/05/07 09:58:20;;;;;;;5.75;3.53;;;;;;;12.35;44.55;101624.50;5035902;28;20030;-89
2021/05/07 10:00:46;;;;;;;;;;;;;;;12.35;43.70;101629.81;5035265;28;20040;-89
2021/05/07 10:03:12;;;;;;;5.70;3.10;;;;;;;12.55;44.25;101614.44;5039666;28;19917;-90
2021/05/07 10:05:39;;;;;;;4.20;2.75;;;;;;;12.87;44.31;101626.34;5039129;28;20014;-88
2021/05/07 10:08:05;;;;;;;6.75;4.65;;;;;;;13.01;42.44;101623.44;5031936;28;20481;-87
2021/05/07 10:10:37;;;;;;;7.43;3.72;;;;;;;13.42;43.20;101631.56;5036732;28;20018;-91
2021/05/07 10:13:05;;;;;;;6.05;3.13;;;;;;;13.48;43.41;101634.13;5031309;28;20033;-92
2021/05/07 10:15:36;;;;;;;4.07;2.53;;;;;;;13.73;42.52;101641.63;5031087;28;20024;-90
2021/05/07 10:18:03;;;;;;;5.85;3.05;;;;;;;13.48;40.79;101639.44;5042314;28;20176;-90
2021/05/07 10:20:32;;;;;;;3.67;2.45;;;;;;;13.21;39.66;101649.69;5035813;28;20017;-92
2021/05/07 10:23:12;;;;;;;3.20;2.55;;;;;;;13.26;40.00;101655.78;5033991;28;20120;-92
2021/05/07 10:25:39;;;;;;;3.40;2.35;;;;;;;13.05;39.45;101657.06;5042492;28;20036;-93
2021/05/07 10:28:15;;;;;;;3.28;2.53;;;;;;;13.06;37.86;101652.59;5035119;28;20029;-92
2021/05/07 10:30:42;;;;;;;4.97;2.72;;;;;;;12.95;39.21;101656.31;5043453;28;20381;-91
2021/05/07 10:33:17;;;;;;;4.00;2.40;;;;;;;13.24;38.13;101662.91;5026218;28;20042;-91
2021/05/07 10:35:53;;;;;;;6.03;2.92;;;;;;;13.42;39.09;101656.44;5036522;28;20033;-96
2021/05/07 10:38:19;;;;;;;6.30;3.10;;;;;;;13.67;39.50;101649.72;5025767;28;20385;-94
2021/05/07 10:40:49;;;;;;;3.75;2.85;;;;;;;13.50;39.19;101648.28;5032125;28;20056;-85
2021/05/07 10:43:16;;;;;;;7.53;3.08;;;;;;;13.53;39.01;101658.88;5034977;28;20030;-90
2021/05/07 10:45:51;;;;;;;3.83;2.70;;;;;;;13.87;38.83;101662.66;5038378;28;20028;-86
2021/05/07 10:48:21;;;;;;;4.30;2.40;;;;;;;13.99;38.50;101669.50;5044099;28;20101;-86
2021/05/07 10:50:52;;;;;;;3.83;2.47;;;;;;;13.85;38.49;101686.66;5030343;28;20036;-86
2021/05/07 10:56:25;;;;;;;3.33;2.40;;;;;;;14.15;38.72;101672.72;5085239;27;20414;-90
2021/05/07 10:58:53;;;;;;;5.00;3.00;;;;;;;14.08;37.86;101685.28;5075689;28;20059;-87
2021/05/07 11:01:25;;;;;;;5.95;3.35;;;;;;;14.35;38.46;101674.94;5072967;28;20048;-88
2021/05/07 11:04:09;;;;;;;6.55;3.33;;;;;;;14.68;38.42;101672.47;5042931;28;20063;-87
2021/05/07 11:06:45;;;;;;;5.85;3.58;;;;;;;14.59;37.37;101684.16;5036322;28;20033;-87
2021/05/07 11:09:31;;;;;;;6.72;3.80;;;;;;;14.45;38.10;101683.63;5033105;28;20108;-86
2021/05/07 11:12:06;;;;;;;7.95;4.18;;;;;;;14.40;38.53;101681.06;5035110;28;20481;-86
2021/05/07 11:14:38;;;;;;;6.78;3.55;;;;;;;14.27;38.99;101690.22;5044271;28;20080;-93
2021/05/07 11:17:04;;;;;;;5.13;3.70;;;;;;;14.21;38.41;101699.25;5040122;28;20041;-87
2021/05/07 11:19:34;;;;;;;5.68;3.28;;;;;;;14.11;39.04;101709.22;5041270;28;20291;-88
2021/05/07 11:22:04;;;;;;;6.20;3.90;;;;;;;13.98;39.56;101697.06;5045641;28;20028;-87
2021/05/07 11:24:35;;;;;;;5.80;3.40;;;;;;;13.73;39.01;101698.44;5046207;28;20025;-87
2021/05/07 11:27:12;;;;;;;6.43;3.88;;;;;;;13.68;40.30;101700.31;5045481;28;20389;-89
2021/05/07 11:29:38;;;;;;;6.00;4.43;;;;;;;13.99;40.12;101689.03;5044396;28;20029;-90
2021/05/07 11:32:09;;;;;;;4.85;3.08;;;;;;;13.91;40.48;101699.84;5046433;28;20036;-90
2021/05/07 11:34:36;;;;;;;6.13;3.45;;;;;;;13.88;40.76;101699.03;5051595;28;20033;-93
2021/05/07 11:37:03;;;;;;;8.23;5.60;;;;;;;14.06;40.14;101692.47;5048638;28;20041;-88